NSZ4FU LEAL-ESGG
Flight info
| Callsign | NSZ4FU |
|---|---|
| Flight time | 3h 1m |
| Altitude | 36000 |
| Route | CATON DCT CENTA DCT PRADO DCT BENED DCT CJN L150 RBO DCT OSTIX DCT GASMO DCT DGO L176 SSN/N0466F380 L176 LUSEM DCT LULUT DCT ADABI DCT BOKNO DCT DEVRO DCT VANAD DCT PIWIZ DCT VADOM DCT BAMES DCT ARSAF DCT EGOZE DCT CMB DCT VEKIN DCT ADUTO N873 VICOT/N0461F370 DCT JUIST DCT LUTIR DCT IBUKA DCT GOTEX N873 LOBBI |
| Aircraft | B738/M-SDE2E3FGHIRWXY/LB1 |
Departure
| Time | 2026-05-07 16:05 |
|---|---|
| Airport | Alicante-Elche Miguel Hernández Airport (LEAL) |
Arrival
| Time | 2026-05-07 19:06 |
|---|---|
| Airport | Göteborg Landvetter Airport (ESGG) |
| Time | Latitude | Longitude | Altitude | Speed | Heading |
|---|---|---|---|---|---|
| 2026-05-07 16:04 | 38.37193 | -0.66434 | 20197 ft | 396 kts | 322° |
| 2026-05-07 16:05 | 38.39580 | -0.68583 | 20330 ft | 412 kts | 322° |
| 2026-05-07 16:05 | 38.41958 | -0.70736 | 20429 ft | 426 kts | 322° |
| 2026-05-07 16:05 | 38.44409 | -0.72962 | 20598 ft | 438 kts | 322° |
| 2026-05-07 16:05 | 38.46908 | -0.75235 | 20993 ft | 443 kts | 322° |
| 2026-05-07 16:06 | 38.49422 | -0.77524 | 21490 ft | 444 kts | 322° |
| 2026-05-07 16:06 | 38.51938 | -0.79816 | 21955 ft | 446 kts | 322° |
| 2026-05-07 16:06 | 38.54472 | -0.82129 | 22357 ft | 450 kts | 322° |
| 2026-05-07 16:06 | 38.57027 | -0.84463 | 22733 ft | 453 kts | 322° |
| 2026-05-07 16:07 | 38.59600 | -0.86816 | 22954 ft | 456 kts | 322° |
| 2026-05-07 16:07 | 38.62187 | -0.89184 | 22946 ft | 456 kts | 322° |
| 2026-05-07 16:07 | 38.64759 | -0.91539 | 22956 ft | 455 kts | 322° |
| 2026-05-07 16:07 | 38.67333 | -0.93897 | 22957 ft | 455 kts | 322° |
| 2026-05-07 16:08 | 38.69907 | -0.96260 | 22956 ft | 456 kts | 322° |
| 2026-05-07 16:08 | 38.72503 | -0.98607 | 22960 ft | 457 kts | 325° |
| 2026-05-07 16:08 | 38.75418 | -1.00281 | 22954 ft | 464 kts | 343° |
| 2026-05-07 16:08 | 38.78600 | -1.01013 | 22989 ft | 466 kts | 349° |
| 2026-05-07 16:09 | 38.81811 | -1.01603 | 22950 ft | 468 kts | 350° |
| 2026-05-07 16:09 | 38.85036 | -1.02179 | 22966 ft | 467 kts | 350° |
| 2026-05-07 16:09 | 38.88255 | -1.02765 | 22965 ft | 467 kts | 350° |
| 2026-05-07 16:09 | 38.91473 | -1.03368 | 22964 ft | 467 kts | 349° |
| 2026-05-07 16:10 | 38.94693 | -1.03988 | 22970 ft | 467 kts | 349° |
| 2026-05-07 16:10 | 38.97857 | -1.04608 | 22959 ft | 467 kts | 349° |
| 2026-05-07 16:10 | 39.01071 | -1.05245 | 22970 ft | 466 kts | 349° |
| 2026-05-07 16:10 | 39.04273 | -1.05882 | 22974 ft | 466 kts | 349° |
| 2026-05-07 16:11 | 39.07475 | -1.06521 | 22970 ft | 466 kts | 349° |
| 2026-05-07 16:11 | 39.10676 | -1.07159 | 22970 ft | 465 kts | 349° |
| 2026-05-07 16:11 | 39.13879 | -1.07807 | 22975 ft | 466 kts | 348° |
| 2026-05-07 16:11 | 39.17016 | -1.08846 | 23148 ft | 468 kts | 339° |
| 2026-05-07 16:12 | 39.20083 | -1.10261 | 23617 ft | 468 kts | 337° |
| 2026-05-07 16:12 | 39.23166 | -1.11629 | 24015 ft | 470 kts | 343° |
| 2026-05-07 16:12 | 39.26396 | -1.12394 | 24318 ft | 474 kts | 350° |
| 2026-05-07 16:12 | 39.29681 | -1.12913 | 24597 ft | 478 kts | 351° |
| 2026-05-07 16:13 | 39.32989 | -1.13402 | 24869 ft | 481 kts | 351° |
| 2026-05-07 16:13 | 39.36323 | -1.13895 | 25162 ft | 483 kts | 351° |
| 2026-05-07 16:13 | 39.39669 | -1.14405 | 25449 ft | 486 kts | 351° |
| 2026-05-07 16:13 | 39.43038 | -1.14935 | 25719 ft | 488 kts | 350° |
| 2026-05-07 16:14 | 39.46417 | -1.15481 | 25969 ft | 491 kts | 350° |
| 2026-05-07 16:14 | 39.49810 | -1.16038 | 26228 ft | 493 kts | 350° |
| 2026-05-07 16:14 | 39.53209 | -1.16602 | 26564 ft | 492 kts | 350° |
| 2026-05-07 16:14 | 39.56604 | -1.17166 | 26958 ft | 491 kts | 350° |
| 2026-05-07 16:15 | 39.59991 | -1.17730 | 27350 ft | 491 kts | 349° |
| 2026-05-07 16:15 | 39.63373 | -1.18294 | 27719 ft | 491 kts | 349° |
| 2026-05-07 16:15 | 39.66770 | -1.18860 | 28088 ft | 491 kts | 349° |
| 2026-05-07 16:15 | 39.70163 | -1.19426 | 28477 ft | 491 kts | 349° |
| 2026-05-07 16:16 | 39.73547 | -1.19990 | 28872 ft | 490 kts | 349° |
| 2026-05-07 16:16 | 39.76933 | -1.20555 | 29257 ft | 490 kts | 349° |
| 2026-05-07 16:16 | 39.80309 | -1.21119 | 29640 ft | 490 kts | 349° |
| 2026-05-07 16:16 | 39.83693 | -1.21684 | 30029 ft | 490 kts | 349° |
| 2026-05-07 16:17 | 39.87067 | -1.22248 | 30396 ft | 488 kts | 349° |
| 2026-05-07 16:17 | 39.90426 | -1.22810 | 30818 ft | 486 kts | 349° |
| 2026-05-07 16:17 | 39.93771 | -1.23370 | 31241 ft | 483 kts | 348° |
| 2026-05-07 16:17 | 39.97095 | -1.23927 | 31673 ft | 480 kts | 348° |
| 2026-05-07 16:18 | 40.00403 | -1.24483 | 31994 ft | 480 kts | 348° |
| 2026-05-07 16:18 | 40.03714 | -1.25041 | 32309 ft | 480 kts | 348° |
| 2026-05-07 16:18 | 40.07021 | -1.25598 | 32680 ft | 478 kts | 348° |
| 2026-05-07 16:18 | 40.10309 | -1.26152 | 33074 ft | 476 kts | 348° |
| 2026-05-07 16:19 | 40.13584 | -1.26704 | 33412 ft | 474 kts | 347° |
| 2026-05-07 16:19 | 40.16864 | -1.27258 | 33695 ft | 474 kts | 347° |
| 2026-05-07 16:19 | 40.20133 | -1.27811 | 33986 ft | 474 kts | 347° |
| 2026-05-07 16:19 | 40.23403 | -1.28364 | 34267 ft | 473 kts | 347° |
| 2026-05-07 16:20 | 40.26652 | -1.28914 | 34532 ft | 472 kts | 347° |
| 2026-05-07 16:20 | 40.29915 | -1.29467 | 34761 ft | 472 kts | 347° |
| 2026-05-07 16:20 | 40.33131 | -1.30013 | 34977 ft | 472 kts | 347° |
| 2026-05-07 16:20 | 40.36427 | -1.30574 | 35215 ft | 472 kts | 348° |
| 2026-05-07 16:21 | 40.39647 | -1.31121 | 35434 ft | 472 kts | 348° |
| 2026-05-07 16:21 | 40.42897 | -1.31674 | 35666 ft | 472 kts | 348° |
| 2026-05-07 16:21 | 40.46149 | -1.32228 | 35894 ft | 471 kts | 348° |
| 2026-05-07 16:21 | 40.49400 | -1.32783 | 35995 ft | 473 kts | 348° |
| 2026-05-07 16:22 | 40.52688 | -1.33345 | 35989 ft | 475 kts | 348° |
| 2026-05-07 16:22 | 40.59220 | -1.34460 | 35970 ft | 471 kts | 348° |
| 2026-05-07 16:23 | 40.65700 | -1.35568 | 35970 ft | 469 kts | 348° |
| 2026-05-07 16:23 | 40.72163 | -1.36677 | 35962 ft | 467 kts | 348° |
| 2026-05-07 16:24 | 40.78605 | -1.37785 | 35948 ft | 467 kts | 348° |
| 2026-05-07 16:24 | 40.85044 | -1.38895 | 35953 ft | 467 kts | 348° |
| 2026-05-07 16:25 | 40.91509 | -1.40012 | 35947 ft | 469 kts | 348° |
| 2026-05-07 16:25 | 40.97978 | -1.41131 | 35945 ft | 470 kts | 348° |
| 2026-05-07 16:26 | 41.04456 | -1.42254 | 35939 ft | 470 kts | 348° |
| 2026-05-07 16:26 | 41.10945 | -1.43379 | 35937 ft | 470 kts | 348° |
| 2026-05-07 16:27 | 41.17426 | -1.44507 | 35937 ft | 470 kts | 348° |
| 2026-05-07 16:27 | 41.23913 | -1.45637 | 35932 ft | 470 kts | 348° |
| 2026-05-07 16:28 | 41.30400 | -1.46770 | 35936 ft | 470 kts | 348° |
| 2026-05-07 16:28 | 41.36845 | -1.47898 | 35929 ft | 470 kts | 348° |
| 2026-05-07 16:29 | 41.43323 | -1.49034 | 35938 ft | 469 kts | 348° |
| 2026-05-07 16:29 | 41.49793 | -1.50170 | 35931 ft | 469 kts | 348° |
| 2026-05-07 16:30 | 41.56260 | -1.51309 | 35936 ft | 469 kts | 348° |
| 2026-05-07 16:30 | 41.62732 | -1.52451 | 35925 ft | 469 kts | 348° |
| 2026-05-07 16:31 | 41.68152 | -1.53409 | 35915 ft | 469 kts | 348° |
| 2026-05-07 16:31 | 41.74572 | -1.54546 | 35921 ft | 468 kts | 348° |
| 2026-05-07 16:32 | 41.81070 | -1.55698 | 35922 ft | 468 kts | 348° |
| 2026-05-07 16:32 | 41.87485 | -1.56840 | 35920 ft | 468 kts | 349° |
| 2026-05-07 16:33 | 41.93949 | -1.57991 | 35925 ft | 469 kts | 349° |
| 2026-05-07 16:33 | 42.00411 | -1.59145 | 35905 ft | 468 kts | 349° |
| 2026-05-07 16:34 | 42.06865 | -1.60299 | 35905 ft | 468 kts | 349° |
| 2026-05-07 16:34 | 42.13323 | -1.61457 | 35897 ft | 467 kts | 349° |
| 2026-05-07 16:35 | 42.19772 | -1.62615 | 35912 ft | 467 kts | 349° |
| 2026-05-07 16:35 | 42.26206 | -1.63773 | 35898 ft | 467 kts | 349° |
| 2026-05-07 16:36 | 42.32646 | -1.64935 | 35899 ft | 466 kts | 348° |
| 2026-05-07 16:36 | 42.39072 | -1.66096 | 35906 ft | 466 kts | 349° |
| 2026-05-07 16:37 | 42.45495 | -1.67259 | 35909 ft | 466 kts | 349° |
| 2026-05-07 16:37 | 42.51922 | -1.68426 | 35908 ft | 465 kts | 349° |
| 2026-05-07 16:38 | 42.58331 | -1.69591 | 35915 ft | 465 kts | 349° |
| 2026-05-07 16:38 | 42.64739 | -1.70759 | 35910 ft | 464 kts | 349° |
| 2026-05-07 16:39 | 42.71145 | -1.71930 | 35918 ft | 464 kts | 349° |
| 2026-05-07 16:39 | 42.77540 | -1.73100 | 35912 ft | 464 kts | 349° |
| 2026-05-07 16:40 | 42.83935 | -1.74273 | 35915 ft | 463 kts | 349° |
| 2026-05-07 16:40 | 42.90322 | -1.75446 | 35919 ft | 463 kts | 349° |
| 2026-05-07 16:41 | 42.96714 | -1.76623 | 35911 ft | 463 kts | 349° |
| 2026-05-07 16:41 | 43.03095 | -1.77801 | 35912 ft | 463 kts | 349° |
| 2026-05-07 16:42 | 43.09480 | -1.78982 | 35901 ft | 463 kts | 349° |
| 2026-05-07 16:42 | 43.15848 | -1.80162 | 35904 ft | 462 kts | 349° |
| 2026-05-07 16:43 | 43.22226 | -1.81347 | 35899 ft | 461 kts | 349° |
| 2026-05-07 16:43 | 43.28612 | -1.82255 | 35872 ft | 465 kts | 360° |
| 2026-05-07 16:43 | 43.31829 | -1.81670 | 35892 ft | 469 kts | 11° |
| 2026-05-07 16:44 | 43.34930 | -1.80251 | 35883 ft | 473 kts | 23° |
| 2026-05-07 16:44 | 43.40610 | -1.75637 | 35885 ft | 475 kts | 31° |
| 2026-05-07 16:45 | 43.46074 | -1.70537 | 35890 ft | 475 kts | 32° |
| 2026-05-07 16:45 | 43.51550 | -1.65451 | 35913 ft | 475 kts | 31° |
| 2026-05-07 16:46 | 43.57059 | -1.60423 | 35914 ft | 474 kts | 31° |
| 2026-05-07 16:46 | 43.62570 | -1.55421 | 35907 ft | 474 kts | 31° |
| 2026-05-07 16:47 | 43.68075 | -1.50418 | 35906 ft | 474 kts | 31° |
| 2026-05-07 16:47 | 43.73575 | -1.45404 | 35899 ft | 473 kts | 31° |
| 2026-05-07 16:48 | 43.79072 | -1.40379 | 35905 ft | 473 kts | 31° |
| 2026-05-07 16:48 | 43.84557 | -1.35353 | 35902 ft | 473 kts | 31° |
| 2026-05-07 16:49 | 43.90042 | -1.30316 | 35905 ft | 473 kts | 31° |
| 2026-05-07 16:49 | 43.95526 | -1.25269 | 35904 ft | 472 kts | 31° |
| 2026-05-07 16:50 | 44.00997 | -1.20222 | 35898 ft | 472 kts | 31° |
| 2026-05-07 16:50 | 44.06428 | -1.15201 | 35897 ft | 472 kts | 31° |
| 2026-05-07 16:51 | 44.11887 | -1.10142 | 35903 ft | 471 kts | 31° |
| 2026-05-07 16:51 | 44.17380 | -1.05041 | 35906 ft | 471 kts | 31° |
| 2026-05-07 16:52 | 44.22789 | -1.00006 | 35910 ft | 471 kts | 31° |
| 2026-05-07 16:52 | 44.28229 | -0.94930 | 35910 ft | 470 kts | 31° |
| 2026-05-07 16:53 | 44.33665 | -0.89847 | 35911 ft | 470 kts | 31° |
| 2026-05-07 16:53 | 44.39091 | -0.84776 | 35908 ft | 469 kts | 30° |
| 2026-05-07 16:54 | 44.44902 | -0.80745 | 35918 ft | 465 kts | 21° |
| 2026-05-07 16:54 | 44.50854 | -0.77213 | 35916 ft | 465 kts | 20° |
| 2026-05-07 16:55 | 44.56799 | -0.73668 | 35917 ft | 464 kts | 21° |
| 2026-05-07 16:55 | 44.62735 | -0.70063 | 35925 ft | 464 kts | 21° |
| 2026-05-07 16:56 | 44.68642 | -0.66437 | 35939 ft | 463 kts | 21° |
| 2026-05-07 16:56 | 44.77497 | -0.60979 | 35945 ft | 463 kts | 21° |
| 2026-05-07 16:57 | 44.83391 | -0.57339 | 35941 ft | 462 kts | 21° |
| 2026-05-07 16:57 | 44.89278 | -0.53696 | 35938 ft | 462 kts | 21° |
| 2026-05-07 16:58 | 44.95160 | -0.50047 | 35936 ft | 462 kts | 21° |
| 2026-05-07 16:58 | 45.01035 | -0.46395 | 35938 ft | 461 kts | 21° |
| 2026-05-07 16:59 | 45.06909 | -0.42735 | 35939 ft | 461 kts | 21° |
| 2026-05-07 16:59 | 45.12778 | -0.39071 | 35936 ft | 461 kts | 21° |
| 2026-05-07 17:00 | 45.15676 | -0.37257 | 35755 ft | 461 kts | 21° |
| 2026-05-07 17:00 | 45.18647 | -0.35397 | 35944 ft | 460 kts | 21° |
| 2026-05-07 17:00 | 45.24496 | -0.31728 | 35942 ft | 460 kts | 21° |
| 2026-05-07 17:01 | 45.30357 | -0.28044 | 35942 ft | 461 kts | 22° |
| 2026-05-07 17:01 | 45.36215 | -0.24352 | 35942 ft | 461 kts | 22° |
| 2026-05-07 17:02 | 45.42039 | -0.20674 | 35939 ft | 461 kts | 22° |
| 2026-05-07 17:02 | 45.47900 | -0.16964 | 35946 ft | 461 kts | 22° |
| 2026-05-07 17:03 | 45.53767 | -0.13241 | 35945 ft | 461 kts | 22° |
| 2026-05-07 17:03 | 45.59622 | -0.09518 | 35953 ft | 461 kts | 22° |
| 2026-05-07 17:04 | 45.65488 | -0.05779 | 35940 ft | 462 kts | 22° |
| 2026-05-07 17:04 | 45.71350 | -0.02034 | 35945 ft | 462 kts | 22° |
| 2026-05-07 17:05 | 45.77216 | 0.01722 | 35942 ft | 462 kts | 22° |
| 2026-05-07 17:05 | 45.83084 | 0.05488 | 35942 ft | 462 kts | 22° |
| 2026-05-07 17:06 | 45.88953 | 0.09264 | 35948 ft | 462 kts | 22° |
| 2026-05-07 17:06 | 45.94819 | 0.13046 | 35956 ft | 463 kts | 22° |
| 2026-05-07 17:07 | 46.00697 | 0.16845 | 35959 ft | 463 kts | 22° |
| 2026-05-07 17:07 | 46.06568 | 0.20649 | 35963 ft | 463 kts | 22° |
| 2026-05-07 17:08 | 46.12451 | 0.24469 | 35964 ft | 464 kts | 22° |
| 2026-05-07 17:08 | 46.18333 | 0.28298 | 35963 ft | 464 kts | 22° |
| 2026-05-07 17:09 | 46.24217 | 0.32136 | 35966 ft | 464 kts | 22° |
| 2026-05-07 17:09 | 46.30106 | 0.35988 | 35971 ft | 464 kts | 22° |
| 2026-05-07 17:10 | 46.35985 | 0.39842 | 35971 ft | 465 kts | 23° |
| 2026-05-07 17:10 | 46.41887 | 0.43720 | 35969 ft | 465 kts | 23° |
| 2026-05-07 17:11 | 46.47741 | 0.47577 | 35968 ft | 466 kts | 23° |
| 2026-05-07 17:11 | 46.53642 | 0.51472 | 35969 ft | 466 kts | 23° |
| 2026-05-07 17:12 | 46.59746 | 0.54501 | 35979 ft | 463 kts | 11° |
| 2026-05-07 17:12 | 46.66050 | 0.56490 | 35975 ft | 464 kts | 10° |
| 2026-05-07 17:13 | 46.72365 | 0.58471 | 35972 ft | 465 kts | 11° |
| 2026-05-07 17:13 | 46.78677 | 0.60533 | 35981 ft | 465 kts | 11° |
| 2026-05-07 17:14 | 46.84986 | 0.62628 | 35980 ft | 465 kts | 11° |
| 2026-05-07 17:14 | 46.91307 | 0.64732 | 35981 ft | 466 kts | 11° |
| 2026-05-07 17:15 | 46.97616 | 0.66834 | 35821 ft | 466 kts | 9° |
| 2026-05-07 17:15 | 47.02918 | 0.68601 | 35925 ft | 473 kts | 10° |
| 2026-05-07 17:16 | 47.09456 | 0.69932 | 35991 ft | 478 kts | 1° |
| 2026-05-07 17:16 | 47.16146 | 0.70499 | 35989 ft | 483 kts | 0° |
| 2026-05-07 17:17 | 47.22857 | 0.71095 | 35969 ft | 481 kts | 1° |
| 2026-05-07 17:17 | 47.29471 | 0.71775 | 35977 ft | 474 kts | 1° |
| 2026-05-07 17:18 | 47.36051 | 0.72472 | 35988 ft | 474 kts | 1° |
| 2026-05-07 17:18 | 47.42621 | 0.73165 | 35990 ft | 473 kts | 1° |
| 2026-05-07 17:19 | 47.49194 | 0.73969 | 35982 ft | 475 kts | 6° |
| 2026-05-07 17:19 | 47.55587 | 0.76606 | 35994 ft | 479 kts | 17° |
| 2026-05-07 17:20 | 47.61887 | 0.79855 | 35990 ft | 480 kts | 17° |
| 2026-05-07 17:20 | 47.68211 | 0.83045 | 35993 ft | 480 kts | 16° |
| 2026-05-07 17:21 | 47.74539 | 0.86169 | 35994 ft | 480 kts | 16° |
| 2026-05-07 17:21 | 47.80875 | 0.89297 | 36003 ft | 480 kts | 16° |
| 2026-05-07 17:22 | 47.87208 | 0.92453 | 35998 ft | 480 kts | 17° |
| 2026-05-07 17:22 | 47.93524 | 0.95651 | 36003 ft | 479 kts | 17° |
| 2026-05-07 17:23 | 47.99838 | 0.98858 | 36004 ft | 479 kts | 17° |
| 2026-05-07 17:23 | 48.06135 | 1.02058 | 36005 ft | 478 kts | 17° |
| 2026-05-07 17:24 | 48.12430 | 1.05265 | 36009 ft | 478 kts | 17° |
| 2026-05-07 17:24 | 48.18676 | 1.08454 | 36009 ft | 477 kts | 17° |
| 2026-05-07 17:25 | 48.24952 | 1.11660 | 36018 ft | 477 kts | 17° |
| 2026-05-07 17:25 | 48.31232 | 1.14859 | 36011 ft | 476 kts | 17° |
| 2026-05-07 17:26 | 48.37500 | 1.18059 | 36014 ft | 476 kts | 17° |
| 2026-05-07 17:26 | 48.43776 | 1.21274 | 36016 ft | 475 kts | 17° |
| 2026-05-07 17:27 | 48.50033 | 1.24490 | 36016 ft | 475 kts | 17° |
| 2026-05-07 17:27 | 48.56288 | 1.27708 | 36019 ft | 475 kts | 17° |
| 2026-05-07 17:28 | 48.62552 | 1.30870 | 36027 ft | 474 kts | 16° |
| 2026-05-07 17:28 | 48.68817 | 1.34017 | 36021 ft | 474 kts | 16° |
| 2026-05-07 17:29 | 48.75082 | 1.37182 | 36025 ft | 474 kts | 17° |
| 2026-05-07 17:29 | 48.81338 | 1.40357 | 36022 ft | 474 kts | 17° |
| 2026-05-07 17:30 | 48.87594 | 1.43541 | 36028 ft | 474 kts | 17° |
| 2026-05-07 17:30 | 48.93830 | 1.46808 | 36020 ft | 475 kts | 21° |
| 2026-05-07 17:31 | 48.99455 | 1.52081 | 36027 ft | 478 kts | 39° |
| 2026-05-07 17:31 | 49.04033 | 1.59418 | 36030 ft | 479 kts | 48° |
| 2026-05-07 17:32 | 49.08395 | 1.67102 | 36023 ft | 479 kts | 48° |
| 2026-05-07 17:32 | 49.12783 | 1.74748 | 36022 ft | 479 kts | 48° |
| 2026-05-07 17:33 | 49.17195 | 1.82356 | 36026 ft | 479 kts | 47° |
| 2026-05-07 17:33 | 49.21610 | 1.89969 | 36024 ft | 479 kts | 47° |
| 2026-05-07 17:34 | 49.25997 | 1.97562 | 36024 ft | 479 kts | 48° |
| 2026-05-07 17:34 | 49.30428 | 2.05259 | 36046 ft | 479 kts | 48° |
| 2026-05-07 17:35 | 49.34797 | 2.12867 | 36047 ft | 479 kts | 48° |
| 2026-05-07 17:35 | 49.39190 | 2.20543 | 36050 ft | 479 kts | 48° |
| 2026-05-07 17:36 | 49.43576 | 2.28233 | 36045 ft | 479 kts | 48° |
| 2026-05-07 17:36 | 49.47990 | 2.35994 | 36049 ft | 478 kts | 48° |
| 2026-05-07 17:37 | 49.52336 | 2.43657 | 36043 ft | 478 kts | 48° |
| 2026-05-07 17:37 | 49.57077 | 2.50792 | 36032 ft | 476 kts | 34° |
| 2026-05-07 17:38 | 49.62651 | 2.56241 | 36039 ft | 475 kts | 30° |
| 2026-05-07 17:38 | 49.68288 | 2.61554 | 36039 ft | 475 kts | 30° |
| 2026-05-07 17:39 | 49.73893 | 2.66939 | 36045 ft | 475 kts | 31° |
| 2026-05-07 17:39 | 49.79487 | 2.72390 | 36044 ft | 475 kts | 31° |
| 2026-05-07 17:40 | 49.85071 | 2.77863 | 36048 ft | 475 kts | 31° |
| 2026-05-07 17:40 | 49.90648 | 2.83341 | 36049 ft | 475 kts | 31° |
| 2026-05-07 17:41 | 49.96228 | 2.88833 | 36054 ft | 475 kts | 31° |
| 2026-05-07 17:41 | 50.01810 | 2.94342 | 36041 ft | 475 kts | 31° |
| 2026-05-07 17:42 | 50.07379 | 2.99854 | 36053 ft | 475 kts | 31° |
| 2026-05-07 17:42 | 50.12953 | 3.05387 | 36034 ft | 475 kts | 31° |
| 2026-05-07 17:43 | 50.18523 | 3.10930 | 36042 ft | 475 kts | 31° |
| 2026-05-07 17:43 | 50.24112 | 3.16283 | 36041 ft | 473 kts | 24° |
| 2026-05-07 17:44 | 50.30159 | 3.20478 | 36055 ft | 472 kts | 21° |
| 2026-05-07 17:44 | 50.36157 | 3.24514 | 36072 ft | 472 kts | 22° |
| 2026-05-07 17:45 | 50.42141 | 3.28765 | 36063 ft | 473 kts | 24° |
| 2026-05-07 17:45 | 50.48012 | 3.33433 | 36066 ft | 473 kts | 25° |
| 2026-05-07 17:46 | 50.53914 | 3.37990 | 36070 ft | 472 kts | 22° |
| 2026-05-07 17:46 | 50.59933 | 3.42099 | 36065 ft | 471 kts | 21° |
| 2026-05-07 17:47 | 50.65962 | 3.46154 | 36067 ft | 471 kts | 21° |
| 2026-05-07 17:47 | 50.71979 | 3.50277 | 36059 ft | 472 kts | 21° |
| 2026-05-07 17:48 | 50.77981 | 3.54435 | 36055 ft | 472 kts | 21° |
| 2026-05-07 17:48 | 50.83996 | 3.58614 | 36051 ft | 472 kts | 21° |
| 2026-05-07 17:49 | 50.90005 | 3.62796 | 36057 ft | 472 kts | 22° |
| 2026-05-07 17:49 | 50.95992 | 3.67034 | 36057 ft | 472 kts | 22° |
| 2026-05-07 17:50 | 51.01970 | 3.71364 | 36057 ft | 472 kts | 22° |
| 2026-05-07 17:50 | 51.07935 | 3.75691 | 36059 ft | 472 kts | 22° |
| 2026-05-07 17:51 | 51.13906 | 3.80020 | 36059 ft | 471 kts | 23° |
| 2026-05-07 17:51 | 51.19878 | 3.84359 | 36059 ft | 471 kts | 23° |
| 2026-05-07 17:52 | 51.25846 | 3.88708 | 36065 ft | 471 kts | 23° |
| 2026-05-07 17:52 | 51.31807 | 3.93062 | 36067 ft | 471 kts | 23° |
| 2026-05-07 17:53 | 51.37770 | 3.97429 | 36071 ft | 471 kts | 23° |
| 2026-05-07 17:53 | 51.43738 | 4.01812 | 36074 ft | 471 kts | 23° |
| 2026-05-07 17:54 | 51.49547 | 4.06576 | 36072 ft | 471 kts | 35° |
| 2026-05-07 17:54 | 51.54692 | 4.13196 | 36086 ft | 476 kts | 39° |
| 2026-05-07 17:55 | 51.59800 | 4.20043 | 36079 ft | 479 kts | 39° |
| 2026-05-07 17:55 | 51.64959 | 4.26881 | 36071 ft | 480 kts | 38° |
| 2026-05-07 17:56 | 51.70128 | 4.33563 | 36071 ft | 479 kts | 36° |
| 2026-05-07 17:56 | 51.72842 | 4.36684 | 36215 ft | 479 kts | 33° |
| 2026-05-07 17:56 | 51.75599 | 4.39688 | 36503 ft | 477 kts | 33° |
| 2026-05-07 17:57 | 51.78356 | 4.42638 | 36795 ft | 475 kts | 33° |
| 2026-05-07 17:57 | 51.80178 | 4.44590 | 36990 ft | 474 kts | 33° |
| 2026-05-07 17:57 | 51.86611 | 4.51574 | 37078 ft | 478 kts | 33° |
| 2026-05-07 17:58 | 51.92091 | 4.57638 | 37063 ft | 474 kts | 34° |
| 2026-05-07 17:58 | 51.97506 | 4.63681 | 37074 ft | 471 kts | 34° |
| 2026-05-07 17:59 | 52.02890 | 4.69710 | 37072 ft | 469 kts | 34° |
| 2026-05-07 17:59 | 52.08258 | 4.75734 | 37076 ft | 468 kts | 34° |
| 2026-05-07 18:00 | 52.13612 | 4.81757 | 37075 ft | 468 kts | 34° |
| 2026-05-07 18:00 | 52.18979 | 4.87813 | 37077 ft | 469 kts | 34° |
| 2026-05-07 18:01 | 52.24346 | 4.93887 | 37079 ft | 471 kts | 34° |
| 2026-05-07 18:01 | 52.29731 | 5.00001 | 37077 ft | 472 kts | 34° |
| 2026-05-07 18:02 | 52.36919 | 5.08189 | 37076 ft | 474 kts | 34° |
| 2026-05-07 18:03 | 52.42323 | 5.14367 | 37074 ft | 474 kts | 34° |
| 2026-05-07 18:03 | 52.47728 | 5.20565 | 37073 ft | 474 kts | 34° |
| 2026-05-07 18:04 | 52.53127 | 5.26776 | 37072 ft | 474 kts | 34° |
| 2026-05-07 18:04 | 52.58520 | 5.32998 | 37080 ft | 473 kts | 35° |
| 2026-05-07 18:05 | 52.63903 | 5.39229 | 37080 ft | 473 kts | 35° |
| 2026-05-07 18:05 | 52.69269 | 5.45458 | 37081 ft | 472 kts | 35° |
| 2026-05-07 18:06 | 52.74633 | 5.51703 | 37075 ft | 471 kts | 35° |
| 2026-05-07 18:06 | 52.79989 | 5.57960 | 37075 ft | 471 kts | 35° |
| 2026-05-07 18:07 | 52.85329 | 5.64216 | 37078 ft | 471 kts | 35° |
| 2026-05-07 18:07 | 52.90663 | 5.70485 | 37091 ft | 470 kts | 35° |
| 2026-05-07 18:08 | 52.95997 | 5.76773 | 37092 ft | 470 kts | 35° |
| 2026-05-07 18:08 | 53.01322 | 5.83070 | 37098 ft | 469 kts | 35° |
| 2026-05-07 18:09 | 53.06629 | 5.89365 | 37095 ft | 469 kts | 36° |
| 2026-05-07 18:09 | 53.11959 | 5.95707 | 37102 ft | 469 kts | 36° |
| 2026-05-07 18:10 | 53.17240 | 6.02010 | 37098 ft | 469 kts | 36° |
| 2026-05-07 18:10 | 53.22533 | 6.08347 | 37100 ft | 468 kts | 36° |
| 2026-05-07 18:11 | 53.27824 | 6.14702 | 37099 ft | 468 kts | 36° |
| 2026-05-07 18:11 | 53.33107 | 6.21066 | 37090 ft | 468 kts | 36° |
| 2026-05-07 18:12 | 53.38379 | 6.27436 | 37098 ft | 468 kts | 36° |
| 2026-05-07 18:12 | 53.43616 | 6.33785 | 37098 ft | 467 kts | 36° |
| 2026-05-07 18:13 | 53.48880 | 6.40187 | 37099 ft | 467 kts | 36° |
| 2026-05-07 18:13 | 53.54172 | 6.46642 | 37099 ft | 467 kts | 37° |
| 2026-05-07 18:14 | 53.59383 | 6.53018 | 37096 ft | 466 kts | 37° |
| 2026-05-07 18:14 | 53.64619 | 6.59445 | 37106 ft | 466 kts | 37° |
| 2026-05-07 18:15 | 53.69849 | 6.65886 | 37104 ft | 465 kts | 37° |
| 2026-05-07 18:15 | 53.75060 | 6.72322 | 37108 ft | 464 kts | 37° |
| 2026-05-07 18:16 | 53.80275 | 6.78785 | 37101 ft | 464 kts | 37° |
| 2026-05-07 18:16 | 53.85465 | 6.85236 | 37110 ft | 463 kts | 37° |
| 2026-05-07 18:17 | 53.90654 | 6.91706 | 37111 ft | 462 kts | 37° |
| 2026-05-07 18:17 | 53.95831 | 6.98183 | 37106 ft | 462 kts | 37° |
| 2026-05-07 18:18 | 54.00995 | 7.04663 | 37109 ft | 461 kts | 37° |
| 2026-05-07 18:18 | 54.06147 | 7.11150 | 37103 ft | 461 kts | 37° |
| 2026-05-07 18:19 | 54.11301 | 7.17657 | 37115 ft | 460 kts | 37° |
| 2026-05-07 18:19 | 54.16438 | 7.24165 | 37115 ft | 460 kts | 37° |
| 2026-05-07 18:20 | 54.21565 | 7.30682 | 37119 ft | 460 kts | 37° |
| 2026-05-07 18:20 | 54.26690 | 7.37214 | 37114 ft | 460 kts | 37° |
| 2026-05-07 18:21 | 54.31811 | 7.43763 | 37117 ft | 459 kts | 37° |
| 2026-05-07 18:21 | 54.36931 | 7.50332 | 37119 ft | 459 kts | 37° |
| 2026-05-07 18:22 | 54.42045 | 7.56915 | 37123 ft | 459 kts | 37° |
| 2026-05-07 18:22 | 54.47150 | 7.63508 | 37124 ft | 459 kts | 37° |
| 2026-05-07 18:23 | 54.52253 | 7.70117 | 37123 ft | 459 kts | 38° |
| 2026-05-07 18:23 | 54.57353 | 7.76746 | 37125 ft | 459 kts | 37° |
| 2026-05-07 18:24 | 54.62454 | 7.83396 | 37123 ft | 459 kts | 37° |
| 2026-05-07 18:24 | 54.67551 | 7.90064 | 37130 ft | 460 kts | 37° |
| 2026-05-07 18:25 | 54.72642 | 7.96744 | 37128 ft | 460 kts | 38° |
| 2026-05-07 18:25 | 54.77739 | 8.03454 | 37129 ft | 460 kts | 37° |
| 2026-05-07 18:26 | 54.82828 | 8.10174 | 37129 ft | 460 kts | 37° |
| 2026-05-07 18:26 | 54.87916 | 8.16917 | 37132 ft | 460 kts | 38° |
| 2026-05-07 18:27 | 54.93003 | 8.23680 | 37129 ft | 461 kts | 38° |
| 2026-05-07 18:27 | 54.98089 | 8.30463 | 37130 ft | 461 kts | 38° |
| 2026-05-07 18:28 | 55.03178 | 8.37272 | 37132 ft | 461 kts | 38° |
| 2026-05-07 18:28 | 55.08262 | 8.44096 | 37131 ft | 461 kts | 38° |
| 2026-05-07 18:29 | 55.13338 | 8.50924 | 37133 ft | 461 kts | 38° |
| 2026-05-07 18:29 | 55.18420 | 8.57781 | 37127 ft | 461 kts | 38° |
| 2026-05-07 18:30 | 55.23464 | 8.64611 | 37134 ft | 461 kts | 38° |
| 2026-05-07 18:30 | 55.28573 | 8.71554 | 37129 ft | 462 kts | 38° |
| 2026-05-07 18:31 | 55.33647 | 8.78472 | 37130 ft | 462 kts | 38° |
| 2026-05-07 18:31 | 55.38679 | 8.85355 | 37130 ft | 462 kts | 38° |
| 2026-05-07 18:32 | 55.43774 | 8.92343 | 37129 ft | 461 kts | 37° |
| 2026-05-07 18:32 | 55.48956 | 8.99008 | 37130 ft | 461 kts | 35° |
| 2026-05-07 18:33 | 55.54209 | 9.05516 | 37130 ft | 461 kts | 35° |
| 2026-05-07 18:33 | 55.59448 | 9.12062 | 37131 ft | 461 kts | 35° |
| 2026-05-07 18:34 | 55.64666 | 9.18659 | 37133 ft | 461 kts | 35° |
| 2026-05-07 18:34 | 55.69869 | 9.25282 | 37130 ft | 461 kts | 35° |
| 2026-05-07 18:35 | 55.75039 | 9.31892 | 37129 ft | 461 kts | 35° |
| 2026-05-07 18:35 | 55.80238 | 9.38556 | 37133 ft | 460 kts | 35° |
| 2026-05-07 18:36 | 55.85461 | 9.45274 | 37126 ft | 460 kts | 35° |
| 2026-05-07 18:36 | 55.90613 | 9.51922 | 37128 ft | 460 kts | 35° |
| 2026-05-07 18:37 | 55.95805 | 9.58644 | 37001 ft | 453 kts | 35° |
| 2026-05-07 18:37 | 55.98306 | 9.61891 | 36522 ft | 448 kts | 35° |
| 2026-05-07 18:37 | 56.00857 | 9.65209 | 35900 ft | 447 kts | 35° |
| 2026-05-07 18:37 | 56.03337 | 9.68438 | 35289 ft | 447 kts | 35° |
| 2026-05-07 18:38 | 56.05890 | 9.71768 | 34572 ft | 449 kts | 35° |
| 2026-05-07 18:38 | 56.08416 | 9.75068 | 33869 ft | 449 kts | 36° |
| 2026-05-07 18:38 | 56.10931 | 9.78360 | 33366 ft | 444 kts | 35° |
| 2026-05-07 18:38 | 56.13388 | 9.81581 | 33240 ft | 445 kts | 36° |
| 2026-05-07 18:39 | 56.15901 | 9.84880 | 33155 ft | 451 kts | 36° |
| 2026-05-07 18:39 | 56.21008 | 9.91600 | 33133 ft | 457 kts | 36° |
| 2026-05-07 18:40 | 56.26124 | 9.98359 | 33120 ft | 456 kts | 36° |
| 2026-05-07 18:40 | 56.31221 | 10.05115 | 33132 ft | 454 kts | 36° |
| 2026-05-07 18:41 | 56.36304 | 10.11875 | 33128 ft | 454 kts | 36° |
| 2026-05-07 18:41 | 56.41376 | 10.18643 | 33128 ft | 453 kts | 36° |
| 2026-05-07 18:42 | 56.46433 | 10.25413 | 32915 ft | 451 kts | 36° |
| 2026-05-07 18:42 | 56.48960 | 10.28806 | 32392 ft | 444 kts | 36° |
| 2026-05-07 18:42 | 56.51405 | 10.32095 | 31715 ft | 443 kts | 35° |
| 2026-05-07 18:42 | 56.53882 | 10.35431 | 30975 ft | 444 kts | 36° |
| 2026-05-07 18:43 | 56.56358 | 10.38771 | 30344 ft | 443 kts | 36° |
| 2026-05-07 18:43 | 56.58821 | 10.42099 | 29753 ft | 439 kts | 36° |
| 2026-05-07 18:43 | 56.61247 | 10.45383 | 29191 ft | 434 kts | 36° |
| 2026-05-07 18:43 | 56.63655 | 10.48649 | 28594 ft | 430 kts | 35° |
| 2026-05-07 18:44 | 56.66036 | 10.51882 | 27986 ft | 426 kts | 36° |
| 2026-05-07 18:44 | 56.68403 | 10.55102 | 27395 ft | 423 kts | 35° |
| 2026-05-07 18:44 | 56.70754 | 10.58304 | 26830 ft | 420 kts | 35° |
| 2026-05-07 18:44 | 56.73079 | 10.61476 | 26273 ft | 416 kts | 35° |
| 2026-05-07 18:45 | 56.75387 | 10.64631 | 25745 ft | 413 kts | 35° |
| 2026-05-07 18:45 | 56.77678 | 10.67767 | 25211 ft | 410 kts | 35° |
| 2026-05-07 18:45 | 56.79954 | 10.70886 | 24688 ft | 407 kts | 35° |
| 2026-05-07 18:45 | 56.82209 | 10.73983 | 24178 ft | 405 kts | 35° |
| 2026-05-07 18:46 | 56.83697 | 10.76029 | 23845 ft | 403 kts | 35° |
| 2026-05-07 18:46 | 56.85929 | 10.79101 | 23291 ft | 400 kts | 36° |
| 2026-05-07 18:46 | 56.88142 | 10.82151 | 22728 ft | 397 kts | 36° |
| 2026-05-07 18:46 | 56.90337 | 10.85183 | 22186 ft | 394 kts | 36° |
| 2026-05-07 18:47 | 56.92511 | 10.88189 | 21650 ft | 391 kts | 36° |
| 2026-05-07 18:47 | 56.94673 | 10.91183 | 21127 ft | 388 kts | 36° |
| 2026-05-07 18:47 | 56.96815 | 10.94153 | 20606 ft | 385 kts | 36° |
| 2026-05-07 18:47 | 56.98944 | 10.97110 | 20105 ft | 382 kts | 36° |
| 2026-05-07 18:48 | 57.01056 | 11.00048 | 19601 ft | 380 kts | 36° |
| 2026-05-07 18:48 | 57.03156 | 11.02973 | 19120 ft | 377 kts | 36° |
| 2026-05-07 18:48 | 57.05240 | 11.05881 | 18651 ft | 375 kts | 36° |
| 2026-05-07 18:48 | 57.07311 | 11.08774 | 18137 ft | 373 kts | 36° |
| 2026-05-07 18:49 | 57.09364 | 11.11646 | 17636 ft | 370 kts | 36° |
| 2026-05-07 18:49 | 57.11401 | 11.14501 | 17142 ft | 367 kts | 36° |
| 2026-05-07 18:49 | 57.13423 | 11.17338 | 16652 ft | 364 kts | 36° |
| 2026-05-07 18:49 | 57.15426 | 11.20151 | 16172 ft | 361 kts | 36° |
| 2026-05-07 18:50 | 57.17413 | 11.22946 | 15699 ft | 358 kts | 36° |
| 2026-05-07 18:50 | 57.19389 | 11.25730 | 15237 ft | 356 kts | 36° |
| 2026-05-07 18:50 | 57.21263 | 11.28674 | 14792 ft | 354 kts | 44° |
| 2026-05-07 18:50 | 57.22935 | 11.31983 | 14563 ft | 351 kts | 46° |
| 2026-05-07 18:51 | 57.24634 | 11.35421 | 14356 ft | 378 kts | 46° |
| 2026-05-07 18:51 | 57.26472 | 11.39131 | 14132 ft | 401 kts | 46° |
| 2026-05-07 18:51 | 57.28367 | 11.42936 | 13874 ft | 403 kts | 46° |
| 2026-05-07 18:51 | 57.30267 | 11.46735 | 13595 ft | 401 kts | 46° |
| 2026-05-07 18:52 | 57.32160 | 11.50518 | 13316 ft | 399 kts | 46° |
| 2026-05-07 18:52 | 57.34041 | 11.54281 | 13173 ft | 400 kts | 46° |
| 2026-05-07 18:52 | 57.35930 | 11.58063 | 13149 ft | 398 kts | 46° |
| 2026-05-07 18:52 | 57.37807 | 11.61829 | 13142 ft | 398 kts | 46° |
| 2026-05-07 18:53 | 57.39661 | 11.65556 | 13126 ft | 385 kts | 46° |
| 2026-05-07 18:53 | 57.41428 | 11.69115 | 13125 ft | 367 kts | 46° |
| 2026-05-07 18:53 | 57.43121 | 11.72532 | 13126 ft | 352 kts | 46° |
| 2026-05-07 18:53 | 57.44739 | 11.75799 | 13121 ft | 336 kts | 46° |
| 2026-05-07 18:54 | 57.46284 | 11.78922 | 13081 ft | 321 kts | 46° |
| 2026-05-07 18:54 | 57.47773 | 11.81936 | 12832 ft | 313 kts | 46° |
| 2026-05-07 18:54 | 57.49234 | 11.84896 | 12267 ft | 309 kts | 46° |
| 2026-05-07 18:54 | 57.50689 | 11.87845 | 11592 ft | 310 kts | 46° |
| 2026-05-07 18:55 | 57.52140 | 11.90792 | 10997 ft | 307 kts | 46° |
| 2026-05-07 18:55 | 57.53575 | 11.93711 | 10448 ft | 304 kts | 46° |
| 2026-05-07 18:55 | 57.54976 | 11.96558 | 10077 ft | 295 kts | 45° |
| 2026-05-07 18:55 | 57.56556 | 11.98861 | 10061 ft | 279 kts | 27° |
| 2026-05-07 18:56 | 57.58256 | 12.00481 | 9765 ft | 272 kts | 25° |
| 2026-05-07 18:56 | 57.59923 | 12.02044 | 9222 ft | 272 kts | 26° |
| 2026-05-07 18:56 | 57.61614 | 12.03659 | 8672 ft | 273 kts | 27° |
| 2026-05-07 18:56 | 57.63291 | 12.05286 | 8213 ft | 271 kts | 27° |
| 2026-05-07 18:57 | 57.64958 | 12.06915 | 7722 ft | 270 kts | 27° |
| 2026-05-07 18:57 | 57.66615 | 12.08538 | 7264 ft | 268 kts | 28° |
| 2026-05-07 18:57 | 57.68262 | 12.10153 | 6807 ft | 267 kts | 28° |
| 2026-05-07 18:57 | 57.69897 | 12.11758 | 6379 ft | 264 kts | 28° |
| 2026-05-07 18:58 | 57.71518 | 12.13350 | 5922 ft | 262 kts | 28° |
| 2026-05-07 18:58 | 57.73123 | 12.14929 | 5470 ft | 260 kts | 29° |
| 2026-05-07 18:58 | 57.74716 | 12.16495 | 5134 ft | 258 kts | 29° |
| 2026-05-07 18:58 | 57.76307 | 12.18063 | 5033 ft | 259 kts | 29° |
| 2026-05-07 18:59 | 57.77908 | 12.19642 | 5007 ft | 260 kts | 29° |
| 2026-05-07 18:59 | 57.79507 | 12.21221 | 4992 ft | 258 kts | 29° |
| 2026-05-07 18:59 | 57.81092 | 12.22787 | 4939 ft | 258 kts | 29° |
| 2026-05-07 18:59 | 57.82696 | 12.24375 | 4746 ft | 263 kts | 29° |
| 2026-05-07 19:00 | 57.84310 | 12.25973 | 4566 ft | 261 kts | 29° |
| 2026-05-07 19:00 | 57.85815 | 12.27788 | 4355 ft | 255 kts | 47° |
| 2026-05-07 19:00 | 57.86692 | 12.30554 | 4257 ft | 240 kts | 73° |
| 2026-05-07 19:00 | 57.86965 | 12.33526 | 4169 ft | 223 kts | 86° |
| 2026-05-07 19:01 | 57.87055 | 12.36298 | 4033 ft | 204 kts | 89° |
| 2026-05-07 19:01 | 57.86806 | 12.38763 | 3870 ft | 186 kts | 118° |
| 2026-05-07 19:01 | 57.85990 | 12.40480 | 3725 ft | 171 kts | 147° |
| 2026-05-07 19:01 | 57.84918 | 12.41259 | 3575 ft | 166 kts | 173° |
| 2026-05-07 19:02 | 57.83747 | 12.41396 | 3501 ft | 172 kts | 176° |
| 2026-05-07 19:02 | 57.82541 | 12.41541 | 3343 ft | 173 kts | 176° |
| 2026-05-07 19:02 | 57.81366 | 12.41366 | 3333 ft | 170 kts | 200° |
| 2026-05-07 19:02 | 57.80248 | 12.40538 | 3287 ft | 176 kts | 201° |
| 2026-05-07 19:03 | 57.79111 | 12.39634 | 3088 ft | 179 kts | 204° |
| 2026-05-07 19:03 | 57.77996 | 12.38648 | 2855 ft | 175 kts | 206° |
| 2026-05-07 19:03 | 57.76949 | 12.37698 | 2612 ft | 160 kts | 206° |
| 2026-05-07 19:03 | 57.75968 | 12.36805 | 2409 ft | 155 kts | 207° |
| 2026-05-07 19:04 | 57.74997 | 12.35920 | 2203 ft | 156 kts | 207° |
| 2026-05-07 19:04 | 57.74015 | 12.35026 | 1989 ft | 157 kts | 208° |
| 2026-05-07 19:04 | 57.73035 | 12.34134 | 1760 ft | 156 kts | 207° |
| 2026-05-07 19:04 | 57.72084 | 12.33269 | 1546 ft | 151 kts | 208° |
| 2026-05-07 19:05 | 57.71169 | 12.32439 | 1394 ft | 141 kts | 207° |
| 2026-05-07 19:05 | 57.70282 | 12.31631 | 1162 ft | 137 kts | 209° |
| 2026-05-07 19:05 | 57.69423 | 12.30875 | 920 ft | 137 kts | 209° |
| 2026-05-07 19:05 | 57.68596 | 12.30049 | 741 ft | 132 kts | 207° |
| 2026-05-07 19:06 | 57.67761 | 12.29337 | 591 ft | 135 kts | 208° |
| 2026-05-07 19:06 | 57.66462 | 12.28145 | 503 ft | 76 kts | 205° |
| 2026-05-07 19:06 | 57.66195 | 12.27933 | 497 ft | 12 kts | 184° |
| 2026-05-07 19:07 | 57.66131 | 12.28013 | 492 ft | 11 kts | 122° |
| 2026-05-07 19:07 | 57.66114 | 12.28079 | 499 ft | 0 kts | 114° |
| 2026-05-07 19:08 | 57.66113 | 12.28080 | 499 ft | 1 kts | 113° |
| 2026-05-07 19:08 | 57.66117 | 12.28150 | 499 ft | 8 kts | 63° |
| 2026-05-07 19:08 | 57.66170 | 12.28224 | 500 ft | 11 kts | 25° |
| 2026-05-07 19:08 | 57.66252 | 12.28297 | 501 ft | 15 kts | 25° |
| 2026-05-07 19:09 | 57.66355 | 12.28389 | 502 ft | 18 kts | 27° |
| 2026-05-07 19:09 | 57.66477 | 12.28502 | 503 ft | 21 kts | 25° |
| 2026-05-07 19:09 | 57.66607 | 12.28618 | 504 ft | 21 kts | 26° |
| 2026-05-07 19:09 | 57.66739 | 12.28737 | 506 ft | 21 kts | 26° |
| 2026-05-07 19:10 | 57.66867 | 12.28855 | 507 ft | 20 kts | 26° |
| 2026-05-07 19:10 | 57.66992 | 12.28969 | 509 ft | 20 kts | 27° |
| 2026-05-07 19:10 | 57.67019 | 12.29174 | 509 ft | 19 kts | 117° |
| 2026-05-07 19:10 | 57.66983 | 12.29341 | 509 ft | 10 kts | 78° |
| 2026-05-07 19:11 | 57.67041 | 12.29390 | 510 ft | 10 kts | 12° |
| 2026-05-07 19:11 | 57.67073 | 12.29449 | 510 ft | 5 kts | 69° |
| 2026-05-07 19:11 | 57.67065 | 12.29508 | 510 ft | 5 kts | 118° |
| 2026-05-07 19:11 | 57.67055 | 12.29544 | 510 ft | 0 kts | 116° |